Time;durP1;ratioP1;P1;durP2;ratioP2;P2;SDS_P1;SDS_P2;PMS_P1;PMS_P2;Temp;Humidity;BMP_temperature;BMP_pressure;BME280_temperature;BME280_humidity;BME280_pressure;Samples;Min_cycle;Max_cycle;Signal;HPM_P1;HPM_P2
2023/01/17 00:02:09;;;;;;;1.58;0.20;;;3.80;99.90;;;;;;5088149;28;20429;-80
2023/01/17 00:10:14;;;;;;;1.70;0.10;;;3.90;99.90;;;;;;5076557;28;20970;-80
2023/01/17 00:12:49;;;;;;;3.30;0.10;;;3.90;99.90;;;;;;5103072;28;20408;-80
2023/01/17 00:15:18;;;;;;;1.00;0.00;;;3.90;99.90;;;;;;5106666;28;20541;-80
2023/01/17 00:17:44;;;;;;;2.50;0.10;;;4.00;99.90;;;;;;5088569;28;20453;-79
2023/01/17 00:26:01;;;;;;;3.80;0.10;;;4.00;99.90;;;;;;5089296;28;20826;-79
2023/01/17 01:35:21;;;;;;;7.57;0.60;;;3.90;99.90;;;;;;5103839;28;20520;-80
2023/01/17 01:37:47;;;;;;;8.90;0.90;;;4.00;99.90;;;;;;5082673;28;20440;-79
2023/01/17 01:40:14;;;;;;;3.83;0.40;;;4.00;99.90;;;;;;5106833;28;20408;-80
2023/01/17 01:42:54;;;;;;;4.30;0.70;;;4.00;99.90;;;;;;5090060;28;20444;-80
2023/01/17 01:45:23;;;;;;;4.38;0.30;;;4.00;99.90;;;;;;5090978;28;20482;-79
2023/01/17 01:47:52;;;;;;;4.22;0.30;;;4.00;99.90;;;;;;5089583;28;20950;-80
2023/01/17 01:50:20;;;;;;;5.95;0.47;;;4.00;99.90;;;;;;5088975;28;20495;-80
2023/01/17 01:52:50;;;;;;;4.72;0.40;;;4.00;99.90;;;;;;5089768;28;20417;-80
2023/01/17 01:55:20;;;;;;;3.05;0.30;;;4.00;99.90;;;;;;5087635;28;21293;-79
2023/01/17 01:57:49;;;;;;;4.95;0.43;;;4.00;99.90;;;;;;5073005;28;20493;-80
2023/01/17 02:00:28;;;;;;;3.78;0.30;;;4.00;99.90;;;;;;5091710;28;20398;-80
2023/01/17 02:02:57;;;;;;;4.55;0.43;;;3.90;99.90;;;;;;5093343;28;20921;-79
2023/01/17 02:05:25;;;;;;;8.00;0.40;;;4.00;99.90;;;;;;5092169;28;20403;-80
2023/01/17 02:08:04;;;;;;;5.28;0.90;;;4.00;99.90;;;;;;5076776;28;20747;-80
2023/01/17 02:10:33;;;;;;;5.93;0.70;;;4.00;99.90;;;;;;5091089;28;20487;-80
2023/01/17 02:13:00;;;;;;;5.15;0.40;;;4.00;99.90;;;;;;5087510;28;20946;-80
2023/01/17 02:15:35;;;;;;;3.47;0.22;;;4.00;99.90;;;;;;5091336;28;20975;-80
2023/01/17 02:18:06;;;;;;;2.28;0.30;;;3.90;99.90;;;;;;5091933;28;20411;-81
2023/01/17 02:20:49;;;;;;;5.27;0.40;;;3.80;99.90;;;;;;5086819;28;20410;-80
2023/01/17 02:23:36;;;;;;;4.70;0.30;;;3.80;99.90;;;;;;5060537;28;20460;-80
2023/01/17 02:26:33;;;;;;;5.47;0.90;;;3.70;99.90;;;;;;5055590;28;20515;-80
2023/01/17 02:29:36;;;;;;;2.13;0.20;;;3.70;99.90;;;;;;5096179;28;20408;-81
2023/01/17 02:32:17;;;;;;;4.03;0.50;;;3.70;99.90;;;;;;5064680;28;20554;-81
2023/01/17 02:35:04;;;;;;;5.47;0.40;;;3.70;99.90;;;;;;5091585;28;20506;-80
2023/01/17 02:37:49;;;;;;;7.90;0.60;;;3.70;99.90;;;;;;5085638;28;20438;-81
2023/01/17 02:40:37;;;;;;;15.23;1.90;;;3.80;99.90;;;;;;5062182;28;20423;-80
2023/01/17 02:43:08;;;;;;;7.03;0.50;;;3.80;99.90;;;;;;5087923;28;21258;-80
2023/01/17 02:45:33;;;;;;;8.45;0.90;;;3.90;99.90;;;;;;5069721;28;20410;-80
2023/01/17 02:47:59;;;;;;;8.43;0.80;;;3.90;99.90;;;;;;5088023;28;20771;-81
2023/01/17 02:50:36;;;;;;;6.25;0.70;;;3.90;99.90;;;;;;5088287;28;20464;-80
2023/01/17 02:53:48;;;;;;;8.00;0.63;;;3.90;99.90;;;;;;5072327;28;20459;-81
2023/01/17 02:56:48;;;;;;;10.35;1.27;;;4.00;99.90;;;;;;5036569;28;20423;-80
2023/01/17 02:59:26;;;;;;;7.63;0.93;;;4.00;99.90;;;;;;5084734;28;20418;-80
2023/01/17 03:02:06;;;;;;;10.77;0.63;;;4.00;99.90;;;;;;5073511;28;20416;-80
2023/01/17 03:04:54;;;;;;;5.85;0.50;;;4.10;99.90;;;;;;5085367;27;20416;-81
2023/01/17 03:07:23;;;;;;;5.53;0.57;;;4.10;99.90;;;;;;5074371;28;20841;-80
2023/01/17 03:09:56;;;;;;;10.10;0.80;;;4.10;99.90;;;;;;5085026;28;20928;-81
2023/01/17 03:12:25;;;;;;;6.00;0.45;;;4.20;99.90;;;;;;5067418;28;20935;-81
2023/01/17 03:14:50;;;;;;;5.32;0.65;;;4.20;99.90;;;;;;5088700;28;20759;-81
2023/01/17 03:17:16;;;;;;;6.20;0.52;;;4.20;99.90;;;;;;5088014;28;20401;-80
2023/01/17 03:19:42;;;;;;;7.33;0.60;;;4.20;99.90;;;;;;5063293;28;20465;-81
2023/01/17 03:22:07;;;;;;;4.53;0.90;;;4.20;99.90;;;;;;5095239;28;20548;-81
2023/01/17 03:24:33;;;;;;;4.15;0.43;;;4.20;99.90;;;;;;5088466;28;20394;-81
2023/01/17 03:26:58;;;;;;;5.10;0.50;;;4.20;99.90;;;;;;5088795;28;20924;-80
2023/01/17 03:29:24;;;;;;;6.17;0.40;;;4.20;99.90;;;;;;5070779;28;20531;-81
2023/01/17 03:31:50;;;;;;;6.75;0.95;;;4.20;99.90;;;;;;5089550;28;20422;-80
2023/01/17 03:34:15;;;;;;;4.63;0.40;;;4.30;99.90;;;;;;5089944;28;20433;-80
2023/01/17 03:36:41;;;;;;;5.27;0.60;;;4.30;99.90;;;;;;5057291;28;20413;-81
2023/01/17 03:39:07;;;;;;;6.72;0.70;;;4.30;99.90;;;;;;5087967;28;20425;-81
2023/01/17 03:41:32;;;;;;;6.85;0.50;;;4.20;99.90;;;;;;5087208;28;20479;-80
2023/01/17 03:43:58;;;;;;;6.90;0.50;;;4.20;99.90;;;;;;5088240;28;20485;-80
2023/01/17 03:46:27;;;;;;;7.18;0.57;;;4.20;99.90;;;;;;5071762;28;20412;-81
2023/01/17 03:48:54;;;;;;;5.40;0.50;;;4.20;99.90;;;;;;5089419;28;20955;-81
2023/01/17 03:51:19;;;;;;;7.53;0.50;;;4.30;99.90;;;;;;5089250;28;20448;-81
2023/01/17 03:53:45;;;;;;;6.65;0.60;;;4.30;99.90;;;;;;5088039;28;20398;-81
2023/01/17 03:56:12;;;;;;;6.22;0.70;;;4.20;99.90;;;;;;5072227;28;20394;-81
2023/01/17 03:58:37;;;;;;;7.50;0.63;;;4.20;99.90;;;;;;5088029;28;20497;-81
2023/01/17 04:01:03;;;;;;;5.47;0.55;;;4.20;99.90;;;;;;5072890;28;20559;-81
2023/01/17 04:03:29;;;;;;;6.40;0.70;;;4.10;99.90;;;;;;5071498;28;21205;-81
2023/01/17 04:05:54;;;;;;;7.50;0.70;;;4.00;99.90;;;;;;5073110;28;20821;-81
2023/01/17 04:08:20;;;;;;;9.50;1.77;;;4.00;99.90;;;;;;5088188;28;20852;-81
2023/01/17 04:10:46;;;;;;;5.70;0.68;;;4.00;99.90;;;;;;5088052;28;20457;-81
2023/01/17 04:13:12;;;;;;;8.07;1.00;;;4.00;99.90;;;;;;5070521;28;20459;-81
2023/01/17 04:15:38;;;;;;;4.00;0.30;;;4.00;99.90;;;;;;5087120;28;20416;-81
2023/01/17 04:18:05;;;;;;;3.78;0.60;;;4.00;99.90;;;;;;5087278;28;21056;-81
2023/01/17 04:20:34;;;;;;;1.65;0.20;;;3.90;99.90;;;;;;5070406;28;20459;-81
2023/01/17 04:22:59;;;;;;;3.73;0.37;;;3.80;99.90;;;;;;5087544;28;20406;-81
2023/01/17 04:25:26;;;;;;;2.60;0.20;;;3.70;99.90;;;;;;5087814;28;20398;-81
2023/01/17 04:27:52;;;;;;;1.55;0.10;;;3.60;99.90;;;;;;5089125;28;20394;-81
2023/01/17 04:30:18;;;;;;;4.75;0.30;;;3.60;99.90;;;;;;5089981;28;20390;-81
2023/01/17 04:32:44;;;;;;;4.38;0.75;;;3.60;99.90;;;;;;5071999;28;21277;-81
2023/01/17 04:35:10;;;;;;;7.38;0.80;;;3.60;99.90;;;;;;5090079;28;20410;-81
2023/01/17 04:37:35;;;;;;;7.15;0.80;;;3.60;99.90;;;;;;5089007;28;20451;-81
2023/01/17 04:40:02;;;;;;;5.97;0.40;;;3.70;99.90;;;;;;5091030;28;20397;-81
2023/01/17 04:42:27;;;;;;;7.47;1.20;;;3.70;99.90;;;;;;5069878;28;20414;-81
2023/01/17 04:44:53;;;;;;;7.30;0.77;;;3.80;99.90;;;;;;5069866;28;20424;-81
2023/01/17 04:47:21;;;;;;;6.85;0.63;;;3.80;99.90;;;;;;5071107;28;20835;-81
2023/01/17 04:49:47;;;;;;;8.02;1.05;;;3.70;99.90;;;;;;5086515;28;20438;-81
2023/01/17 04:52:13;;;;;;;6.38;0.77;;;3.60;99.90;;;;;;5066297;28;20474;-81
2023/01/17 04:54:40;;;;;;;5.95;0.47;;;3.50;99.90;;;;;;5054086;28;20408;-80
2023/01/17 04:57:05;;;;;;;7.32;0.85;;;3.40;99.90;;;;;;5078784;28;20496;-81
2023/01/17 04:59:31;;;;;;;8.75;1.40;;;3.30;99.90;;;;;;5076258;28;20412;-81
2023/01/17 05:01:57;;;;;;;6.03;0.47;;;3.30;99.90;;;;;;5082949;28;20753;-80
2023/01/17 05:04:23;;;;;;;7.47;1.20;;;3.20;99.90;;;;;;5069817;28;20429;-81
2023/01/17 05:06:48;;;;;;;6.30;0.60;;;3.30;99.90;;;;;;5105601;28;20400;-80
2023/01/17 05:09:14;;;;;;;5.90;0.43;;;3.20;99.90;;;;;;5077596;28;20406;-81
2023/01/17 05:11:39;;;;;;;3.92;0.40;;;3.20;99.90;;;;;;5090444;28;20508;-81
2023/01/17 05:14:05;;;;;;;4.53;0.60;;;3.20;99.90;;;;;;5069445;28;20453;-81
2023/01/17 05:16:30;;;;;;;3.40;0.30;;;3.20;99.90;;;;;;5066878;28;20771;-80
2023/01/17 05:18:56;;;;;;;4.70;0.40;;;3.20;99.90;;;;;;5090254;28;20394;-80
2023/01/17 05:21:22;;;;;;;3.60;0.23;;;3.20;99.90;;;;;;5090358;28;20409;-81
2023/01/17 05:23:48;;;;;;;7.13;1.00;;;3.20;99.90;;;;;;5090395;28;20401;-81
2023/01/17 05:26:14;;;;;;;5.15;0.50;;;3.20;99.90;;;;;;5076144;28;20398;-81
2023/01/17 05:28:39;;;;;;;6.93;0.50;;;3.20;99.90;;;;;;5090828;28;20402;-80
2023/01/17 05:31:05;;;;;;;5.25;0.40;;;3.20;99.90;;;;;;5089728;28;20437;-79
2023/01/17 05:33:31;;;;;;;5.57;1.10;;;3.20;99.90;;;;;;5090193;28;20406;-80
2023/01/17 05:35:56;;;;;;;2.63;0.30;;;3.20;99.90;;;;;;5067382;28;20412;-80
2023/01/17 05:38:22;;;;;;;4.60;0.28;;;3.10;99.90;;;;;;5084107;28;20415;-79
2023/01/17 05:40:48;;;;;;;1.97;0.30;;;3.10;99.90;;;;;;5072234;28;20892;-79
2023/01/17 05:43:14;;;;;;;4.43;0.47;;;3.10;99.90;;;;;;5089885;28;20408;-80
2023/01/17 05:45:41;;;;;;;6.30;0.40;;;3.00;99.90;;;;;;5090684;28;21220;-79
2023/01/17 05:48:08;;;;;;;4.45;0.60;;;2.90;99.90;;;;;;5090838;28;20475;-79
2023/01/17 05:50:36;;;;;;;2.78;0.28;;;2.90;99.90;;;;;;5075079;28;20445;-80
2023/01/17 05:53:08;;;;;;;4.63;0.63;;;2.80;99.90;;;;;;5073597;28;20410;-80
2023/01/17 05:55:35;;;;;;;2.78;0.30;;;2.80;99.90;;;;;;5073009;28;20421;-79
2023/01/17 05:58:01;;;;;;;4.45;0.20;;;2.70;99.90;;;;;;5072426;28;20460;-79
2023/01/17 06:00:27;;;;;;;4.25;0.60;;;2.70;99.90;;;;;;5089326;28;20398;-79
2023/01/17 06:02:54;;;;;;;4.15;0.40;;;2.70;99.90;;;;;;5074089;28;20981;-80
2023/01/17 06:05:20;;;;;;;7.80;0.40;;;2.70;99.90;;;;;;5071275;28;20491;-80
2023/01/17 06:07:46;;;;;;;4.00;0.40;;;2.80;99.90;;;;;;5073439;28;20463;-79
2023/01/17 06:10:14;;;;;;;4.05;0.60;;;2.80;99.90;;;;;;5089137;28;20842;-79
2023/01/17 06:12:40;;;;;;;3.15;0.30;;;2.80;99.90;;;;;;5089189;28;20518;-79
2023/01/17 06:15:07;;;;;;;3.72;0.40;;;2.80;99.90;;;;;;5088467;28;20406;-79
2023/01/17 06:17:34;;;;;;;3.30;0.20;;;2.70;99.90;;;;;;5072636;28;20907;-79
2023/01/17 06:19:59;;;;;;;3.88;0.40;;;2.70;99.90;;;;;;5089384;28;20402;-79
2023/01/17 06:22:25;;;;;;;3.35;0.22;;;2.70;99.90;;;;;;5072286;28;20413;-79
2023/01/17 06:24:51;;;;;;;4.00;0.30;;;2.70;99.90;;;;;;5089212;28;20402;-79
2023/01/17 06:27:17;;;;;;;4.37;0.57;;;2.70;99.90;;;;;;5072578;28;20900;-79
2023/01/17 06:29:42;;;;;;;4.97;0.40;;;2.60;99.90;;;;;;5076654;28;20412;-80
2023/01/17 06:32:08;;;;;;;3.65;0.30;;;2.60;99.90;;;;;;5094513;28;20499;-80
2023/01/17 06:34:34;;;;;;;3.22;0.20;;;2.50;99.90;;;;;;5088338;28;20406;-79
2023/01/17 06:36:59;;;;;;;3.40;0.30;;;2.50;99.90;;;;;;5071344;28;20457;-79
2023/01/17 06:39:25;;;;;;;4.38;0.30;;;2.40;99.90;;;;;;5094824;28;20495;-79
2023/01/17 06:41:53;;;;;;;4.18;0.60;;;2.40;99.90;;;;;;5088686;28;20961;-80
2023/01/17 06:44:19;;;;;;;4.00;0.40;;;2.40;99.90;;;;;;5100858;28;20462;-80
2023/01/17 06:46:46;;;;;;;3.60;0.30;;;2.30;99.90;;;;;;5087736;28;20410;-79
2023/01/17 06:49:12;;;;;;;5.47;0.40;;;2.20;99.90;;;;;;5084779;28;20785;-79
2023/01/17 06:51:38;;;;;;;7.80;0.50;;;2.20;99.90;;;;;;5088121;28;20430;-79
2023/01/17 06:54:03;;;;;;;2.90;0.40;;;2.20;99.90;;;;;;5103263;28;20443;-79
2023/01/17 06:56:30;;;;;;;4.17;0.40;;;2.10;99.90;;;;;;5097347;28;21046;-79
2023/01/17 06:58:56;;;;;;;7.82;0.43;;;2.10;99.90;;;;;;5087934;28;20412;-79
2023/01/17 07:01:22;;;;;;;5.20;0.85;;;2.00;99.90;;;;;;5100969;28;20427;-79
2023/01/17 07:03:47;;;;;;;3.17;0.50;;;2.00;99.90;;;;;;5091036;28;20411;-78
2023/01/17 07:06:13;;;;;;;4.87;0.50;;;2.00;99.90;;;;;;5094154;28;20398;-78
2023/01/17 07:08:39;;;;;;;2.60;0.37;;;2.00;99.90;;;;;;5097005;28;20458;-79
2023/01/17 07:11:07;;;;;;;3.88;0.40;;;1.90;99.90;;;;;;5085487;28;20439;-78
2023/01/17 07:13:34;;;;;;;6.25;0.50;;;1.90;99.90;;;;;;5090926;28;20404;-79
2023/01/17 07:16:00;;;;;;;3.95;0.85;;;1.80;99.90;;;;;;5090476;28;20413;-79
2023/01/17 07:18:27;;;;;;;5.40;0.50;;;1.90;99.90;;;;;;5085322;28;20418;-79
2023/01/17 07:20:53;;;;;;;4.25;0.40;;;1.80;99.90;;;;;;5088054;28;20799;-78
2023/01/17 07:23:20;;;;;;;3.65;0.60;;;1.80;99.90;;;;;;5083734;28;20410;-78
2023/01/17 07:25:59;;;;;;;3.88;0.80;;;1.80;99.90;;;;;;5071633;28;20450;-78
2023/01/17 07:28:27;;;;;;;5.40;0.30;;;1.80;99.90;;;;;;5068481;28;20466;-79
2023/01/17 07:30:53;;;;;;;6.32;0.40;;;1.80;99.90;;;;;;5088607;28;20452;-79
2023/01/17 07:33:19;;;;;;;5.07;0.43;;;1.80;99.90;;;;;;5085816;28;20426;-79
2023/01/17 07:35:45;;;;;;;5.60;0.35;;;1.80;99.90;;;;;;5069123;28;20422;-79
2023/01/17 07:38:16;;;;;;;3.63;0.50;;;1.80;99.90;;;;;;5085676;28;20429;-80
2023/01/17 07:40:42;;;;;;;3.72;0.50;;;1.80;99.90;;;;;;5087815;28;20900;-79
2023/01/17 07:43:15;;;;;;;3.63;0.30;;;1.80;99.90;;;;;;5069868;28;20457;-79
2023/01/17 07:45:48;;;;;;;3.45;0.30;;;1.80;99.90;;;;;;5089279;28;20394;-79
2023/01/17 07:48:14;;;;;;;4.32;0.20;;;1.80;99.90;;;;;;5095033;28;20485;-79
2023/01/17 07:50:40;;;;;;;4.13;0.40;;;1.80;99.90;;;;;;5081479;28;20413;-79
2023/01/17 07:53:06;;;;;;;3.22;0.47;;;1.80;99.90;;;;;;5084665;28;21094;-79
2023/01/17 07:55:32;;;;;;;6.43;0.50;;;1.80;99.90;;;;;;5087835;28;20404;-79
2023/01/17 07:57:57;;;;;;;2.65;0.32;;;1.80;99.90;;;;;;5072015;28;20435;-79
2023/01/17 08:00:26;;;;;;;6.00;0.50;;;1.80;99.90;;;;;;5097497;28;20413;-79
2023/01/17 08:02:56;;;;;;;4.18;0.30;;;1.80;99.90;;;;;;5097430;28;20780;-79
2023/01/17 08:05:23;;;;;;;3.70;0.30;;;1.80;99.90;;;;;;5087293;28;20911;-79
2023/01/17 08:07:48;;;;;;;3.63;0.30;;;1.90;99.90;;;;;;5081284;28;20457;-79
2023/01/17 08:10:17;;;;;;;1.40;0.30;;;2.00;99.90;;;;;;5094079;28;20408;-79
2023/01/17 08:12:47;;;;;;;3.42;0.32;;;2.00;99.90;;;;;;5084980;28;20464;-79
2023/01/17 08:15:17;;;;;;;2.45;0.20;;;2.20;99.90;;;;;;5087891;28;20479;-80
2023/01/17 08:17:53;;;;;;;0.88;0.10;;;2.30;99.90;;;;;;5086540;28;20508;-80
2023/01/17 08:20:20;;;;;;;3.78;0.30;;;2.50;99.90;;;;;;5086237;28;20436;-80
2023/01/17 08:22:46;;;;;;;1.42;0.20;;;2.50;99.90;;;;;;5084034;28;20754;-80
2023/01/17 08:25:11;;;;;;;1.67;0.35;;;2.60;99.90;;;;;;5084320;28;20409;-80
2023/01/17 08:27:38;;;;;;;2.93;0.10;;;2.60;99.90;;;;;;5090988;28;20394;-80
2023/01/17 08:30:05;;;;;;;3.13;0.20;;;2.60;99.90;;;;;;5089256;28;20418;-79
2023/01/17 08:32:31;;;;;;;2.90;0.20;;;2.60;99.90;;;;;;5090199;28;20442;-79
2023/01/17 08:34:56;;;;;;;4.57;0.60;;;2.70;99.90;;;;;;5088252;28;20414;-79
2023/01/17 08:37:23;;;;;;;5.45;0.60;;;2.70;99.90;;;;;;5091154;28;20413;-80
2023/01/17 08:39:49;;;;;;;3.70;0.45;;;2.90;99.90;;;;;;5087856;28;20892;-80
2023/01/17 08:42:14;;;;;;;4.30;0.30;;;3.00;99.90;;;;;;5092173;28;20401;-80
2023/01/17 08:44:42;;;;;;;3.70;0.20;;;3.10;99.90;;;;;;5087242;28;20394;-80
2023/01/17 08:47:08;;;;;;;7.13;0.50;;;3.20;99.90;;;;;;5091119;28;20410;-79
2023/01/17 08:49:33;;;;;;;0.93;0.10;;;3.20;99.90;;;;;;5088406;28;20449;-80
2023/01/17 08:51:59;;;;;;;2.33;0.10;;;3.10;99.90;;;;;;5059246;28;20825;-80
2023/01/17 08:54:24;;;;;;;3.83;0.20;;;3.00;99.90;;;;;;5075388;28;20400;-80
2023/01/17 08:56:51;;;;;;;2.60;0.10;;;3.00;99.90;;;;;;5064259;28;20413;-79
2023/01/17 08:59:17;;;;;;;2.75;0.10;;;2.90;99.90;;;;;;5085423;28;20418;-79
2023/01/17 09:01:44;;;;;;;2.42;0.20;;;2.90;99.90;;;;;;5090788;28;20829;-80
2023/01/17 09:04:11;;;;;;;1.17;0.20;;;2.90;99.90;;;;;;5089461;28;20406;-79
2023/01/17 09:06:38;;;;;;;2.88;0.30;;;2.90;99.90;;;;;;5089010;28;20409;-79
2023/01/17 09:09:05;;;;;;;1.92;0.35;;;2.90;99.90;;;;;;5077040;28;20405;-79
2023/01/17 09:11:30;;;;;;;3.55;0.20;;;2.80;99.90;;;;;;5085802;28;20824;-79
2023/01/17 09:13:56;;;;;;;2.03;0.20;;;2.80;99.90;;;;;;5068738;28;20433;-79
2023/01/17 09:16:22;;;;;;;2.40;0.20;;;2.80;99.90;;;;;;5067731;28;20449;-80
2023/01/17 09:18:47;;;;;;;4.10;0.30;;;2.90;99.90;;;;;;5087790;28;20762;-80
2023/01/17 09:21:15;;;;;;;3.37;0.50;;;3.00;99.90;;;;;;5069547;28;20463;-80
2023/01/17 09:23:42;;;;;;;4.40;0.30;;;3.10;99.90;;;;;;5081344;28;20497;-80
2023/01/17 09:26:24;;;;;;;5.53;0.40;;;3.20;99.90;;;;;;5086385;28;20424;-80
2023/01/17 09:28:50;;;;;;;4.07;0.40;;;3.30;99.90;;;;;;5084416;28;20438;-80
2023/01/17 09:31:16;;;;;;;2.10;0.30;;;3.40;99.90;;;;;;5086248;28;20426;-80
2023/01/17 09:33:42;;;;;;;3.90;0.43;;;3.40;99.90;;;;;;5085899;28;20838;-80
2023/01/17 09:36:09;;;;;;;3.73;0.40;;;3.40;99.90;;;;;;5086615;28;20425;-80
2023/01/17 09:38:35;;;;;;;3.72;0.60;;;3.50;99.90;;;;;;5085293;28;20437;-80
2023/01/17 09:41:02;;;;;;;3.30;0.20;;;3.50;99.90;;;;;;5086326;28;20993;-80
2023/01/17 09:43:49;;;;;;;3.15;0.40;;;3.40;99.90;;;;;;5084428;28;20418;-80
2023/01/17 09:46:25;;;;;;;4.50;0.40;;;3.40;99.90;;;;;;5069742;28;20931;-80
2023/01/17 09:49:05;;;;;;;4.82;0.50;;;3.30;99.90;;;;;;5084084;28;20421;-79
2023/01/17 09:51:31;;;;;;;4.20;0.50;;;3.30;99.90;;;;;;5085278;28;20439;-78
2023/01/17 09:53:57;;;;;;;3.20;0.75;;;3.30;99.90;;;;;;5088364;28;20428;-79
2023/01/17 09:56:41;;;;;;;2.72;0.38;;;3.40;99.90;;;;;;5089835;28;20414;-79
2023/01/17 09:59:23;;;;;;;3.20;0.38;;;3.50;99.90;;;;;;5088976;28;20787;-81
2023/01/17 10:02:14;;;;;;;3.50;0.60;;;3.50;99.90;;;;;;5065802;28;20430;-80
2023/01/17 10:04:58;;;;;;;4.13;0.65;;;3.50;99.90;;;;;;5089254;28;20426;-80
2023/01/17 10:07:35;;;;;;;3.78;0.40;;;3.50;99.90;;;;;;5087111;28;20584;-80
2023/01/17 10:10:25;;;;;;;1.37;0.23;;;3.50;99.90;;;;;;5060794;28;20437;-80
2023/01/17 10:13:23;;;;;;;1.70;0.20;;;3.60;99.90;;;;;;5094292;28;20459;-81
2023/01/17 10:16:03;;;;;;;1.42;0.10;;;3.60;99.90;;;;;;5067839;28;20424;-81
2023/01/17 10:19:23;;;;;;;1.80;0.10;;;3.60;99.90;;;;;;5084583;28;20941;-81
2023/01/17 10:22:14;;;;;;;1.33;0.10;;;3.60;99.90;;;;;;5011085;28;20447;-78
2023/01/17 10:24:55;;;;;;;0.80;0.00;;;3.70;99.90;;;;;;5088487;28;20774;-78
2023/01/17 10:27:32;;;;;;;0.45;0.00;;;3.70;99.90;;;;;;5107304;28;20424;-80
2023/01/17 10:30:09;;;;;;;1.55;0.00;;;3.90;99.90;;;;;;5076561;28;20422;-80
2023/01/17 10:32:45;;;;;;;0.43;0.00;;;4.00;99.90;;;;;;5087009;28;20521;-80
2023/01/17 10:35:29;;;;;;;0.22;0.00;;;4.00;99.90;;;;;;5084927;28;20406;-79
2023/01/17 10:37:57;;;;;;;1.27;0.10;;;4.00;99.90;;;;;;5072199;28;20425;-78
2023/01/17 10:40:45;;;;;;;0.57;0.10;;;4.10;99.90;;;;;;5068835;28;20428;-77
2023/01/17 10:43:10;;;;;;;1.23;0.00;;;4.10;99.90;;;;;;5088964;28;20434;-80
2023/01/17 10:45:42;;;;;;;2.28;0.20;;;4.10;99.90;;;;;;5097168;28;20798;-78
2023/01/17 10:48:28;;;;;;;1.37;0.10;;;4.00;99.90;;;;;;5089131;28;20414;-78
2023/01/17 10:51:09;;;;;;;0.50;0.03;;;4.10;99.90;;;;;;5086368;28;21216;-78
2023/01/17 10:54:04;;;;;;;1.85;0.10;;;4.30;99.90;;;;;;5089803;28;20490;-77
2023/01/17 10:56:31;;;;;;;0.88;0.10;;;4.60;99.90;;;;;;5055601;28;20507;-78
2023/01/17 10:59:37;;;;;;;2.50;0.10;;;4.80;99.90;;;;;;5088881;28;20970;-79
2023/01/17 11:02:13;;;;;;;1.80;0.20;;;5.10;99.90;;;;;;5065665;28;20491;-79
2023/01/17 11:04:41;;;;;;;1.27;0.10;;;5.00;99.90;;;;;;5087908;28;20410;-79
2023/01/17 11:07:13;;;;;;;2.20;0.30;;;4.90;99.90;;;;;;5090241;28;20463;-77
2023/01/17 11:09:46;;;;;;;2.92;0.30;;;4.80;99.90;;;;;;5070589;28;20453;-76
2023/01/17 11:12:40;;;;;;;1.30;0.13;;;5.00;99.90;;;;;;5068235;28;20466;-75
2023/01/17 11:15:08;;;;;;;3.08;0.10;;;5.40;99.90;;;;;;5077494;28;20429;-79
2023/01/17 11:17:58;;;;;;;0.85;0.20;;;5.50;99.90;;;;;;5087567;28;20425;-78
2023/01/17 11:20:39;;;;;;;1.23;0.10;;;5.40;99.90;;;;;;5082664;28;21153;-79
2023/01/17 11:23:30;;;;;;;1.65;0.20;;;5.40;99.90;;;;;;5076913;28;20432;-79
2023/01/17 11:26:01;;;;;;;2.20;0.20;;;5.30;99.90;;;;;;5062781;28;20401;-79
2023/01/17 11:28:30;;;;;;;1.90;0.20;;;4.90;99.90;;;;;;5076864;28;20489;-79
2023/01/17 11:30:59;;;;;;;0.95;0.10;;;4.80;99.90;;;;;;5072062;28;20436;-80
2023/01/17 11:36:32;;;;;;;1.50;0.10;;;6.70;99.90;;;;;;5057051;28;20781;-79
2023/01/17 11:39:04;;;;;;;3.67;0.50;;;7.90;99.90;;;;;;5077428;28;20408;-79
2023/01/17 11:41:40;;;;;;;3.25;0.20;;;8.70;99.90;;;;;;5070872;28;20413;-80
2023/01/17 11:44:29;;;;;;;1.55;0.17;;;9.20;99.90;;;;;;5088323;28;20410;-79
2023/01/17 11:47:11;;;;;;;2.78;0.20;;;9.40;99.90;;;;;;5064113;28;20421;-80
2023/01/17 11:49:48;;;;;;;4.60;0.22;;;9.00;99.90;;;;;;5089578;28;20424;-79
2023/01/17 11:52:30;;;;;;;1.80;0.30;;;8.40;99.90;;;;;;5085646;28;20503;-79
2023/01/17 11:54:56;;;;;;;2.50;0.22;;;7.80;99.90;;;;;;5084416;28;20962;-79
2023/01/17 11:57:28;;;;;;;4.80;0.22;;;7.20;99.90;;;;;;5087382;28;20432;-80
2023/01/17 12:00:02;;;;;;;2.60;0.30;;;6.70;99.90;;;;;;5087349;28;20440;-79
2023/01/17 12:02:41;;;;;;;3.17;0.30;;;6.30;99.90;;;;;;5086214;28;20505;-78
2023/01/17 12:05:25;;;;;;;2.10;0.20;;;6.00;99.90;;;;;;5078115;28;20513;-78
2023/01/17 12:08:03;;;;;;;3.47;0.43;;;5.70;99.90;;;;;;5074314;28;20441;-78
2023/01/17 12:10:37;;;;;;;1.90;0.20;;;5.60;99.90;;;;;;5084461;28;20430;-78
2023/01/17 12:16:31;;;;;;;2.92;0.30;;;5.50;99.90;;;;;;5073460;28;20426;-79
2023/01/17 12:19:19;;;;;;;2.55;0.25;;;5.50;99.90;;;;;;5099043;28;20417;-79
2023/01/17 12:22:21;;;;;;;3.85;0.30;;;5.50;99.90;;;;;;5084774;28;20993;-80
2023/01/17 12:25:21;;;;;;;4.00;0.40;;;5.60;99.90;;;;;;5067077;28;20410;-80
2023/01/17 12:27:57;;;;;;;2.78;0.38;;;5.70;99.90;;;;;;5075433;28;20567;-79
2023/01/17 12:30:23;;;;;;;2.55;0.30;;;5.80;99.90;;;;;;5061146;28;20443;-79
2023/01/17 12:33:03;;;;;;;4.63;0.43;;;5.90;99.90;;;;;;5075026;28;20438;-78
2023/01/17 12:35:44;;;;;;;5.30;0.60;;;5.90;99.90;;;;;;5081742;28;20410;-79
2023/01/17 12:38:17;;;;;;;1.83;0.30;;;6.10;99.90;;;;;;5083728;28;20931;-80
2023/01/17 12:40:54;;;;;;;3.53;0.40;;;6.10;99.90;;;;;;5060324;28;20412;-79
2023/01/17 12:43:34;;;;;;;3.95;0.50;;;6.20;99.90;;;;;;5066128;28;20457;-79
2023/01/17 12:46:19;;;;;;;3.90;0.33;;;6.50;99.90;;;;;;5070711;28;20476;-79
2023/01/17 12:48:51;;;;;;;2.35;0.38;;;6.70;99.90;;;;;;5076928;28;20414;-79
2023/01/17 12:51:54;;;;;;;4.20;0.60;;;6.70;99.90;;;;;;5081660;28;20423;-79
2023/01/17 12:54:32;;;;;;;3.95;0.25;;;6.50;99.90;;;;;;5029145;28;20432;-79
2023/01/17 12:57:12;;;;;;;2.85;0.40;;;6.40;99.90;;;;;;5083339;28;20490;-79
2023/01/17 13:00:09;;;;;;;3.63;0.43;;;6.30;99.90;;;;;;5065304;28;20794;-79
2023/01/17 13:02:48;;;;;;;4.10;0.30;;;6.30;99.90;;;;;;5086618;28;20566;-79
2023/01/17 13:05:35;;;;;;;3.28;0.40;;;6.10;99.90;;;;;;5086830;28;20430;-79
2023/01/17 13:08:26;;;;;;;2.67;0.30;;;6.20;99.90;;;;;;5084636;28;20426;-78
2023/01/17 13:10:58;;;;;;;3.55;0.35;;;6.20;99.90;;;;;;5068200;28;20475;-79
2023/01/17 13:13:25;;;;;;;1.83;0.30;;;6.30;99.90;;;;;;5102991;28;20481;-79
2023/01/17 13:16:01;;;;;;;3.55;0.30;;;6.30;99.90;;;;;;5087085;28;20405;-79
2023/01/17 13:18:28;;;;;;;3.10;0.40;;;6.40;99.90;;;;;;5085469;28;20424;-79
2023/01/17 13:21:16;;;;;;;3.08;0.50;;;6.30;99.90;;;;;;5069685;28;20470;-78
2023/01/17 13:23:58;;;;;;;3.55;0.40;;;6.10;99.90;;;;;;5072942;28;21188;-79
2023/01/17 13:26:26;;;;;;;3.33;0.30;;;6.00;99.90;;;;;;5086266;28;20424;-79
2023/01/17 13:29:26;;;;;;;4.97;0.40;;;5.90;99.90;;;;;;5092414;28;20441;-79
2023/01/17 13:32:21;;;;;;;3.20;0.40;;;5.90;99.90;;;;;;5076831;28;20426;-78
2023/01/17 13:35:01;;;;;;;3.40;0.30;;;6.10;99.90;;;;;;5090792;28;20511;-79
2023/01/17 13:37:40;;;;;;;1.55;0.30;;;6.10;99.90;;;;;;5088348;28;20437;-79
2023/01/17 13:40:30;;;;;;;4.38;0.45;;;6.10;99.90;;;;;;5089435;28;20420;-78
2023/01/17 13:43:04;;;;;;;3.70;0.40;;;6.10;99.90;;;;;;5087816;28;20417;-79
2023/01/17 13:45:33;;;;;;;2.83;0.30;;;6.20;99.90;;;;;;5090121;28;20969;-79
2023/01/17 13:48:11;;;;;;;2.80;0.40;;;6.40;99.90;;;;;;5088957;28;20425;-79
2023/01/17 13:50:39;;;;;;;2.70;0.30;;;6.30;99.90;;;;;;5091932;28;20506;-79
2023/01/17 13:53:27;;;;;;;3.10;0.32;;;6.30;99.90;;;;;;5090002;28;20418;-79
2023/01/17 13:56:21;;;;;;;3.80;0.30;;;6.20;99.90;;;;;;5106629;28;20421;-78
2023/01/17 13:58:48;;;;;;;2.55;0.25;;;6.10;99.90;;;;;;5078755;28;20521;-79
2023/01/17 14:01:20;;;;;;;2.63;0.50;;;6.00;99.90;;;;;;5073952;28;20406;-79
2023/01/17 14:03:49;;;;;;;4.43;0.80;;;5.90;99.90;;;;;;5089958;28;20428;-79
2023/01/17 14:06:52;;;;;;;2.40;0.30;;;5.90;99.90;;;;;;5088854;28;21027;-79
2023/01/17 14:09:35;;;;;;;2.97;0.52;;;6.10;99.90;;;;;;5029103;28;20500;-79
2023/01/17 14:12:10;;;;;;;1.48;0.20;;;6.40;99.90;;;;;;5073028;28;20992;-79
2023/01/17 14:14:39;;;;;;;2.23;0.20;;;6.50;99.90;;;;;;5064811;28;20477;-78
2023/01/17 14:17:45;;;;;;;3.20;0.28;;;6.60;99.90;;;;;;5072388;28;21089;-78
2023/01/17 14:20:11;;;;;;;6.25;0.50;;;6.50;99.90;;;;;;5069150;28;20407;-79
2023/01/17 14:22:40;;;;;;;1.33;0.10;;;6.40;99.90;;;;;;5103917;28;20434;-79
2023/01/17 14:25:13;;;;;;;4.85;0.45;;;6.20;99.90;;;;;;5076538;28;20430;-79
2023/01/17 14:27:42;;;;;;;5.43;0.57;;;6.20;99.90;;;;;;5073701;28;20421;-79
2023/01/17 14:30:32;;;;;;;4.97;0.50;;;6.30;99.90;;;;;;5078364;28;20447;-79
2023/01/17 14:32:59;;;;;;;1.67;0.28;;;6.60;99.90;;;;;;5089861;28;20947;-79
2023/01/17 14:35:39;;;;;;;3.15;0.40;;;6.60;99.90;;;;;;5081935;28;20448;-79
2023/01/17 14:38:20;;;;;;;3.17;0.45;;;6.70;99.90;;;;;;5071224;28;20424;-79
2023/01/17 14:41:06;;;;;;;2.03;0.22;;;6.50;99.90;;;;;;5085056;28;20415;-79
2023/01/17 14:43:35;;;;;;;2.53;0.30;;;6.20;99.90;;;;;;5081534;28;20469;-81
2023/01/17 14:46:17;;;;;;;3.15;0.20;;;6.00;99.90;;;;;;5070733;28;20436;-78
2023/01/17 14:48:43;;;;;;;3.70;0.40;;;5.80;99.90;;;;;;5086830;28;20425;-78
2023/01/17 14:51:16;;;;;;;5.73;1.20;;;5.70;99.90;;;;;;5090045;28;20923;-78